createdAt,value
2022-08-02T00:03:46.069Z,100766.31
2022-08-02T00:08:44.202Z,100776.44
2022-08-02T00:13:43.659Z,100777.03
2022-08-02T00:18:41.851Z,100777.91
2022-08-02T00:24:03.340Z,100783.84
2022-08-02T00:28:59.469Z,100784.53
2022-08-02T00:34:27.439Z,100788.25
2022-08-02T00:39:33.801Z,100791.97
2022-08-02T00:44:33.952Z,100785.19
2022-08-02T00:49:32.988Z,100782.72
2022-08-02T00:54:31.405Z,100784.28
2022-08-02T00:59:29.593Z,100778.97
2022-08-02T01:04:31.596Z,100789.41
2022-08-02T01:09:30.230Z,100783.56
2022-08-02T01:14:28.617Z,100784.25
2022-08-02T01:19:35.990Z,100783.84
2022-08-02T01:24:56.243Z,100783.59
2022-08-02T01:30:00.258Z,100797.97
2022-08-02T01:35:03.928Z,100806.47
2022-08-02T01:40:08.311Z,100805.34
2022-08-02T01:45:11.496Z,100805.94
2022-08-02T01:50:13.861Z,100816.53
2022-08-02T01:55:18.452Z,100814.03
2022-08-02T02:00:20.783Z,100818.22
2022-08-02T02:05:22.154Z,100822.09
2022-08-02T02:10:27.185Z,100828.00
2022-08-02T02:15:28.133Z,100824.09
2022-08-02T02:20:27.879Z,100826.88
2022-08-02T02:25:35.691Z,100833.88
2022-08-02T02:30:39.885Z,100834.16
2022-08-02T02:35:39.528Z,100837.94
2022-08-02T02:40:40.539Z,100829.13
2022-08-02T02:45:41.837Z,100830.00
2022-08-02T02:50:40.880Z,100833.88
2022-08-02T02:55:39.402Z,100834.13
2022-08-02T03:00:56.572Z,100838.19
2022-08-02T03:05:55.442Z,100850.06
2022-08-02T03:10:55.003Z,100844.44
2022-08-02T03:15:55.174Z,100849.47
2022-08-02T03:20:53.255Z,100853.81
2022-08-02T03:25:53.190Z,100845.25
2022-08-02T03:30:51.321Z,100842.41
2022-08-02T03:35:53.545Z,100857.22
2022-08-02T03:40:52.425Z,100861.66
2022-08-02T03:50:51.567Z,100869.72
2022-08-02T03:55:51.914Z,100868.59
2022-08-02T04:00:50.742Z,100875.38
2022-08-02T04:06:03.217Z,100872.22
2022-08-02T04:11:20.709Z,100884.41
2022-08-02T04:16:22.604Z,100894.28
2022-08-02T04:21:24.867Z,100886.84
2022-08-02T04:26:28.197Z,100889.72
2022-08-02T04:31:26.909Z,100881.94
2022-08-02T04:36:31.569Z,100898.06
2022-08-02T04:41:41.074Z,100899.75
2022-08-02T04:46:44.340Z,100897.53
2022-08-02T04:51:44.802Z,100899.16
2022-08-02T04:56:43.082Z,100899.16
2022-08-02T05:01:42.557Z,100910.06
2022-08-02T05:06:40.780Z,100907.41
2022-08-02T05:11:40.287Z,100900.75
2022-08-02T05:16:38.618Z,100907.75
2022-08-02T05:21:36.750Z,100895.59
2022-08-02T05:26:34.850Z,100913.75
2022-08-02T05:31:34.359Z,100914.63
2022-08-02T05:36:32.561Z,100915.72
2022-08-02T05:41:30.662Z,100924.31
2022-08-02T05:46:28.867Z,100919.16
2022-08-02T05:51:35.829Z,100930.03
2022-08-02T05:56:36.867Z,100920.41
2022-08-02T06:01:37.847Z,100933.59
2022-08-02T06:06:38.912Z,100925.25
2022-08-02T06:11:39.559Z,100934.78
2022-08-02T06:16:42.479Z,100939.63
2022-08-02T06:22:42.133Z,100937.81
2022-08-02T06:27:02.889Z,100940.13
2022-08-02T06:32:01.549Z,100934.13
2022-08-02T06:37:10.354Z,100935.59
2022-08-02T06:42:16.765Z,100934.22
2022-08-02T06:47:26.763Z,100935.59
2022-08-02T06:52:30.077Z,100937.66
2022-08-02T06:57:29.478Z,100951.25
2022-08-02T07:02:27.868Z,100946.34
2022-08-02T07:07:27.597Z,100948.69
2022-08-02T07:12:25.769Z,100946.53
2022-08-02T07:17:23.985Z,100954.41
2022-08-02T07:22:23.661Z,100937.63
2022-08-02T07:27:23.655Z,100941.22
2022-08-02T07:32:23.992Z,100931.22
2022-08-02T07:37:35.183Z,100938.22
2022-08-02T07:42:44.545Z,100944.06
2022-08-02T07:47:44.615Z,100938.22
2022-08-02T07:52:43.401Z,100942.97
2022-08-02T07:57:46.466Z,100947.09
2022-08-02T08:02:45.515Z,100942.50
2022-08-02T08:07:43.683Z,100945.66
2022-08-02T08:12:43.158Z,100945.09
2022-08-02T08:17:41.273Z,100943.69
2022-08-02T08:22:39.432Z,100945.31
2022-08-02T08:27:37.574Z,100939.84
2022-08-02T08:32:37.031Z,100937.97
2022-08-02T08:37:35.838Z,100929.00
2022-08-02T08:42:34.978Z,100922.25
2022-08-02T08:47:38.440Z,100922.13
2022-08-02T08:52:41.146Z,100924.16
2022-08-02T08:57:42.190Z,100924.03
2022-08-02T09:02:43.561Z,100919.78
2022-08-02T09:07:44.776Z,100917.47
2022-08-02T09:12:42.991Z,100923.19
2022-08-02T09:17:53.370Z,100913.91
2022-08-02T09:23:07.093Z,100909.84
2022-08-02T09:28:06.484Z,100894.72
2022-08-02T09:33:06.189Z,100913.47
2022-08-02T09:38:12.094Z,100899.88
2022-08-02T09:43:10.588Z,100908.53
2022-08-02T09:48:11.058Z,100904.41
2022-08-02T09:53:14.135Z,100906.09
2022-08-02T09:58:19.359Z,100905.16
2022-08-02T10:03:22.214Z,100897.13
2022-08-02T10:08:21.711Z,100897.41
2022-08-02T10:13:21.911Z,100892.69
2022-08-02T10:18:37.715Z,100896.50
2022-08-02T10:23:40.858Z,100888.72
2022-08-02T10:28:39.198Z,100887.81
2022-08-02T10:33:40.345Z,100876.63
2022-08-02T10:38:39.070Z,100865.84
2022-08-02T10:43:50.348Z,100870.28
2022-08-02T10:54:30.459Z,100858.44
2022-08-02T10:59:30.469Z,100858.13
2022-08-02T11:04:31.785Z,100863.72
2022-08-02T11:09:33.344Z,100859.16
2022-08-02T11:14:33.674Z,100856.53
2022-08-02T11:19:34.140Z,100851.97
2022-08-02T11:24:34.949Z,100855.13
2022-08-02T11:29:38.980Z,100858.25
2022-08-02T11:34:40.649Z,100847.28
2022-08-02T11:39:38.913Z,100856.41
2022-08-02T11:44:46.923Z,100851.03
2022-08-02T11:49:47.169Z,100845.63
2022-08-02T11:54:45.582Z,100850.66
2022-08-02T11:59:45.465Z,100849.81
2022-08-02T12:04:44.177Z,100840.66
2022-08-02T12:09:43.842Z,100837.09
2022-08-02T12:14:44.770Z,100843.78
2022-08-02T12:19:44.045Z,100840.19
2022-08-02T12:24:46.034Z,100843.69
2022-08-02T12:29:58.395Z,100849.56
2022-08-02T12:35:09.569Z,100847.19
2022-08-02T12:40:26.541Z,100849.06
2022-08-02T12:45:25.259Z,100827.41
2022-08-02T12:50:29.494Z,100840.75
2022-08-02T12:56:00.862Z,100832.31
2022-08-02T13:00:54.532Z,100832.69
2022-08-02T13:05:57.278Z,100834.91
2022-08-02T13:10:58.834Z,100831.03
2022-08-02T13:15:57.100Z,100835.75
2022-08-02T13:20:57.318Z,100843.59
2022-08-02T13:25:58.862Z,100838.03
2022-08-02T13:31:05.944Z,100839.97
2022-08-02T13:36:13.221Z,100851.81
2022-08-02T13:41:13.885Z,100837.47
2022-08-02T13:46:12.248Z,100847.28
2022-08-02T13:51:12.175Z,100844.97
2022-08-02T13:56:14.580Z,100841.63
2022-08-02T14:01:12.818Z,100840.47
2022-08-02T14:06:11.125Z,100844.81
2022-08-02T14:11:09.361Z,100832.94
2022-08-02T14:16:09.001Z,100837.81
2022-08-02T14:21:07.185Z,100840.81
2022-08-02T14:26:14.171Z,100848.41
2022-08-02T14:31:26.913Z,100834.69
2022-08-02T14:36:27.389Z,100838.63
2022-08-02T14:41:26.321Z,100834.91
2022-08-02T14:46:26.123Z,100828.47
2022-08-02T14:51:24.381Z,100828.34
2022-08-02T14:56:23.115Z,100824.78
2022-08-02T15:01:21.451Z,100829.56
2022-08-02T15:06:28.319Z,100825.41
2022-08-02T15:11:26.808Z,100823.00
2022-08-02T15:16:41.697Z,100822.34
2022-08-02T15:21:54.696Z,100817.84
2022-08-02T15:26:55.590Z,100821.84
2022-08-02T15:31:53.776Z,100819.53
2022-08-02T15:36:53.377Z,100824.31
2022-08-02T15:41:51.657Z,100823.38
2022-08-02T15:46:51.766Z,100824.25
2022-08-02T15:51:50.323Z,100827.84
2022-08-02T15:56:50.190Z,100820.22
2022-08-02T16:01:48.664Z,100822.22
2022-08-02T16:06:46.955Z,100818.31
2022-08-02T16:11:45.195Z,100836.47
2022-08-02T16:16:44.950Z,100837.78
2022-08-02T16:21:43.186Z,100838.09
2022-08-02T16:26:41.591Z,100842.44
2022-08-02T16:31:42.831Z,100846.63
2022-08-02T16:36:42.711Z,100850.75
2022-08-02T16:41:50.489Z,100855.72
2022-08-02T16:46:50.867Z,100854.69
2022-08-02T16:51:52.550Z,100851.16
2022-08-02T16:56:51.337Z,100860.69
2022-08-02T17:02:03.842Z,100864.63
2022-08-02T17:08:05.872Z,100861.84
2022-08-02T17:12:27.511Z,100868.88
2022-08-02T17:17:34.215Z,100870.72
2022-08-02T17:22:36.857Z,100872.94
2022-08-02T17:27:35.243Z,100879.50
2022-08-02T17:32:33.474Z,100880.25
2022-08-02T17:37:33.343Z,100891.91
2022-08-02T17:42:33.335Z,100887.91
2022-08-02T17:47:31.632Z,100897.66
2022-08-02T17:52:52.199Z,100896.66
2022-08-02T17:57:57.870Z,100871.94
2022-08-02T18:02:57.280Z,100905.84
2022-08-02T18:08:00.913Z,100909.03
2022-08-02T18:12:59.314Z,100916.03
2022-08-02T18:17:58.020Z,100924.41
2022-08-02T18:22:58.862Z,100935.78
2022-08-02T18:27:57.275Z,100933.94
2022-08-02T18:33:59.935Z,100944.13
2022-08-02T18:38:16.095Z,100940.97
2022-08-02T18:43:14.456Z,100948.75
2022-08-02T18:48:12.712Z,100952.50
2022-08-02T18:53:39.322Z,100950.25
2022-08-02T18:58:35.794Z,100968.00
2022-08-02T19:03:37.014Z,100969.84
2022-08-02T19:08:36.875Z,100969.78
2022-08-02T19:13:39.340Z,100972.34
2022-08-02T19:18:40.470Z,100976.44
2022-08-02T19:23:54.540Z,100983.84
2022-08-02T19:28:54.259Z,100977.63
2022-08-02T19:34:05.914Z,100987.59
2022-08-02T19:39:07.542Z,100993.19
2022-08-02T19:44:24.291Z,100990.88
2022-08-02T19:49:40.355Z,100992.06
2022-08-02T19:54:55.468Z,100993.69
2022-08-02T19:59:55.470Z,100999.75
2022-08-02T20:04:53.905Z,101002.72
2022-08-02T20:09:55.801Z,101000.00
2022-08-02T20:14:54.666Z,101008.00
2022-08-02T20:19:53.397Z,101012.34
2022-08-02T20:24:51.606Z,101010.00
2022-08-02T20:29:51.420Z,101002.16
2022-08-02T20:34:50.286Z,101001.38
2022-08-02T20:39:49.144Z,101016.25
2022-08-02T20:44:47.290Z,101012.41
2022-08-02T20:50:01.159Z,101015.06
2022-08-02T20:55:00.815Z,101019.28
2022-08-02T21:00:02.930Z,101028.31
2022-08-02T21:05:07.896Z,101030.16
2022-08-02T21:10:13.566Z,101041.00
2022-08-02T21:15:13.429Z,101044.19
2022-08-02T21:20:16.769Z,101044.09
2022-08-02T21:25:15.744Z,101044.44
2022-08-02T21:30:14.593Z,101058.81
2022-08-02T21:35:14.311Z,101053.81
2022-08-02T21:40:13.467Z,101063.31
2022-08-02T21:45:17.337Z,101062.16
2022-08-02T21:50:33.144Z,101058.00
2022-08-02T21:56:00.540Z,101053.13
2022-08-02T22:00:49.309Z,101054.09
2022-08-02T22:05:48.859Z,101060.13
2022-08-02T22:16:21.034Z,101050.44
2022-08-02T22:21:22.949Z,101056.25
2022-08-02T22:26:22.751Z,101049.34
2022-08-02T22:31:39.604Z,101060.69
2022-08-02T22:36:43.382Z,101061.50
2022-08-02T22:42:01.581Z,101058.53
2022-08-02T22:46:59.694Z,101060.66
2022-08-02T22:52:07.100Z,101060.34
2022-08-02T22:57:06.439Z,101055.53
2022-08-02T23:02:05.727Z,101057.16
2022-08-02T23:07:04.036Z,101065.94
2022-08-02T23:12:04.280Z,101058.41
2022-08-02T23:17:20.026Z,101059.97
2022-08-02T23:22:18.375Z,101065.31
2022-08-02T23:27:20.089Z,101062.97
2022-08-02T23:32:18.661Z,101073.03
2022-08-02T23:37:21.134Z,101076.75
2022-08-02T23:42:20.615Z,101065.16
2022-08-02T23:47:19.067Z,101062.44
2022-08-02T23:52:17.547Z,101068.91
2022-08-02T23:57:20.778Z,101081.13
